createdAt,value
2023-01-31T00:00:51.445Z,7.15
2023-01-31T00:03:26.456Z,7.10
2023-01-31T00:05:55.584Z,7.10
2023-01-31T00:08:24.644Z,7.15
2023-01-31T00:10:53.842Z,7.23
2023-01-31T00:13:22.723Z,7.29
2023-01-31T00:15:51.701Z,7.31
2023-01-31T00:18:21.108Z,7.31
2023-01-31T00:20:50.238Z,7.35
2023-01-31T00:23:19.043Z,7.40
2023-01-31T00:25:48.853Z,7.41
2023-01-31T00:28:17.912Z,7.44
2023-01-31T00:30:46.752Z,7.46
2023-01-31T00:33:15.608Z,7.50
2023-01-31T00:35:44.645Z,7.53
2023-01-31T00:38:14.204Z,7.52
2023-01-31T00:40:43.024Z,7.52
2023-01-31T00:43:12.001Z,7.47
2023-01-31T00:45:40.945Z,7.37
2023-01-31T00:48:10.059Z,7.36
2023-01-31T00:50:38.822Z,7.40
2023-01-31T00:53:07.686Z,7.42
2023-01-31T00:55:37.389Z,7.38
2023-01-31T00:58:07.111Z,7.36
2023-01-31T01:00:36.573Z,7.41
2023-01-31T01:03:06.364Z,7.47
2023-01-31T01:05:35.997Z,7.46
2023-01-31T01:08:06.188Z,7.33
2023-01-31T01:10:35.569Z,7.25
2023-01-31T01:13:06.208Z,7.23
2023-01-31T01:15:38.704Z,7.22
2023-01-31T01:18:08.763Z,7.21
2023-01-31T01:20:37.747Z,7.19
2023-01-31T01:23:06.888Z,7.17
2023-01-31T01:25:44.013Z,7.16
2023-01-31T01:28:13.285Z,7.11
2023-01-31T01:30:42.190Z,7.09
2023-01-31T01:33:11.047Z,7.09
2023-01-31T01:35:40.593Z,7.15
2023-01-31T01:38:09.691Z,7.21
2023-01-31T01:40:39.509Z,7.25
2023-01-31T01:43:12.391Z,7.27
2023-01-31T01:45:41.602Z,7.29
2023-01-31T01:48:17.045Z,7.32
2023-01-31T01:50:50.393Z,7.32
2023-01-31T01:53:22.415Z,7.25
2023-01-31T01:55:54.509Z,7.06
2023-01-31T01:58:44.983Z,6.81
2023-01-31T02:01:17.275Z,6.59
2023-01-31T02:03:49.615Z,6.46
2023-01-31T02:06:18.858Z,6.37
2023-01-31T02:08:49.452Z,6.27
2023-01-31T02:11:28.734Z,6.19
2023-01-31T02:14:10.192Z,6.15
2023-01-31T02:16:39.082Z,6.09
2023-01-31T02:19:29.910Z,6.04
2023-01-31T02:22:01.040Z,5.94
2023-01-31T02:24:54.337Z,5.93
2023-01-31T02:27:53.862Z,5.83
2023-01-31T02:30:42.578Z,5.70
2023-01-31T02:33:26.416Z,5.65
2023-01-31T02:36:26.959Z,5.66
2023-01-31T02:39:20.613Z,5.60
2023-01-31T02:42:04.597Z,5.53
2023-01-31T02:45:02.356Z,5.46
2023-01-31T02:47:52.147Z,5.38
2023-01-31T02:50:54.351Z,5.28
2023-01-31T02:53:31.805Z,5.20
2023-01-31T02:56:21.226Z,5.12
2023-01-31T02:58:50.097Z,4.93
2023-01-31T03:01:25.719Z,4.90
2023-01-31T03:04:06.457Z,4.86
2023-01-31T03:06:35.151Z,4.78
2023-01-31T03:09:25.415Z,4.68
2023-01-31T03:12:21.969Z,4.64
2023-01-31T03:15:25.677Z,4.59
2023-01-31T03:18:10.791Z,4.42
2023-01-31T03:20:59.543Z,4.26
2023-01-31T03:23:31.639Z,4.15
2023-01-31T03:26:03.008Z,4.13
2023-01-31T03:28:37.343Z,4.09
2023-01-31T03:31:15.605Z,4.02
2023-01-31T03:33:53.046Z,4.04
2023-01-31T03:36:39.849Z,4.11
2023-01-31T03:39:36.475Z,4.09
2023-01-31T03:42:22.644Z,4.02
2023-01-31T03:45:03.624Z,3.98
2023-01-31T03:47:40.405Z,3.95
2023-01-31T03:50:29.793Z,3.90
2023-01-31T03:53:50.865Z,3.78
2023-01-31T03:56:35.191Z,3.59
2023-01-31T03:59:12.138Z,3.57
2023-01-31T04:01:48.836Z,3.56
2023-01-31T04:04:29.213Z,3.61
2023-01-31T04:06:57.883Z,3.63
2023-01-31T04:09:26.817Z,3.71
2023-01-31T04:12:01.436Z,3.77
2023-01-31T04:14:30.912Z,3.79
2023-01-31T04:16:59.799Z,3.79
2023-01-31T04:19:28.243Z,3.76
2023-01-31T04:21:56.988Z,3.77
2023-01-31T04:24:25.741Z,3.69
2023-01-31T04:26:54.507Z,3.60
2023-01-31T04:29:23.557Z,3.56
2023-01-31T04:31:52.788Z,3.52
2023-01-31T04:34:21.656Z,3.53
2023-01-31T04:36:50.663Z,3.54
2023-01-31T04:39:20.124Z,3.53
2023-01-31T04:41:49.035Z,3.51
2023-01-31T04:44:18.045Z,3.59
2023-01-31T04:46:49.170Z,3.71
2023-01-31T04:49:18.349Z,3.79
2023-01-31T04:51:47.006Z,3.78
2023-01-31T04:54:17.004Z,3.77
2023-01-31T04:56:46.199Z,3.81
2023-01-31T04:59:15.054Z,3.80
2023-01-31T05:01:44.297Z,3.69
2023-01-31T05:04:13.162Z,3.50
2023-01-31T05:06:42.098Z,3.45
2023-01-31T05:09:11.795Z,3.45
2023-01-31T05:11:41.238Z,3.42
2023-01-31T05:14:10.447Z,3.37
2023-01-31T05:16:39.644Z,3.35
2023-01-31T05:19:09.076Z,3.37
2023-01-31T05:21:55.406Z,3.43
2023-01-31T05:24:25.517Z,3.45
2023-01-31T05:26:58.968Z,3.42
2023-01-31T05:29:33.812Z,3.42
2023-01-31T05:32:04.273Z,3.47
2023-01-31T05:34:34.049Z,3.52
2023-01-31T05:37:03.843Z,3.57
2023-01-31T05:39:32.869Z,3.57
2023-01-31T05:42:02.052Z,3.51
2023-01-31T05:44:33.330Z,3.44
2023-01-31T05:47:02.552Z,3.34
2023-01-31T05:49:33.861Z,3.30
2023-01-31T05:52:03.252Z,3.29
2023-01-31T05:54:32.622Z,3.32
2023-01-31T05:57:02.679Z,3.31
2023-01-31T05:59:33.916Z,3.19
2023-01-31T06:02:03.131Z,3.10
2023-01-31T06:04:32.150Z,3.07
2023-01-31T06:07:01.503Z,3.02
2023-01-31T06:09:30.815Z,3.01
2023-01-31T06:11:59.988Z,2.96
2023-01-31T06:14:29.014Z,2.89
2023-01-31T06:16:57.752Z,2.83
2023-01-31T06:19:27.098Z,2.74
2023-01-31T06:21:56.063Z,2.65
2023-01-31T06:24:24.792Z,2.60
2023-01-31T06:26:53.614Z,2.60
2023-01-31T06:29:22.503Z,2.62
2023-01-31T06:31:51.273Z,2.62
2023-01-31T06:34:21.019Z,2.61
2023-01-31T06:36:49.985Z,2.59
2023-01-31T06:39:19.114Z,2.60
2023-01-31T06:41:48.011Z,2.64
2023-01-31T06:44:17.077Z,2.64
2023-01-31T06:46:46.857Z,2.69
2023-01-31T06:49:15.885Z,2.74
2023-01-31T06:51:45.140Z,2.75
2023-01-31T06:54:14.307Z,2.78
2023-01-31T06:56:43.187Z,2.77
2023-01-31T06:59:12.594Z,2.72
2023-01-31T07:01:41.832Z,2.75
2023-01-31T07:04:11.301Z,2.81
2023-01-31T07:06:40.374Z,2.93
2023-01-31T07:09:09.077Z,3.48
2023-01-31T07:11:39.095Z,4.98
2023-01-31T07:14:07.846Z,6.31
2023-01-31T07:16:38.569Z,7.50
2023-01-31T07:19:07.659Z,8.67
2023-01-31T07:21:37.454Z,9.66
2023-01-31T07:24:06.738Z,10.62
2023-01-31T07:26:36.037Z,11.53
2023-01-31T07:29:04.996Z,12.27
2023-01-31T07:31:33.991Z,12.83
2023-01-31T07:34:03.121Z,13.49
2023-01-31T07:36:33.340Z,14.12
2023-01-31T07:39:02.384Z,14.72
2023-01-31T07:41:31.254Z,15.19
2023-01-31T07:44:00.470Z,15.69
2023-01-31T07:46:28.890Z,16.08
2023-01-31T07:48:57.963Z,16.44
2023-01-31T07:51:27.558Z,16.89
2023-01-31T07:53:57.609Z,17.14
2023-01-31T07:56:26.512Z,17.44
2023-01-31T07:58:55.463Z,17.98
2023-01-31T08:01:45.410Z,18.00
2023-01-31T08:04:21.546Z,17.95
2023-01-31T08:07:03.290Z,18.73
2023-01-31T08:09:32.975Z,19.70
2023-01-31T08:12:01.587Z,20.33
2023-01-31T08:14:31.045Z,21.09
2023-01-31T08:17:00.270Z,21.63
2023-01-31T08:19:29.581Z,22.04
2023-01-31T08:21:58.532Z,22.43
2023-01-31T08:24:27.714Z,22.95
2023-01-31T08:26:58.021Z,23.45
2023-01-31T08:29:27.457Z,23.95
2023-01-31T08:31:56.196Z,24.72
2023-01-31T08:34:25.568Z,25.30
2023-01-31T08:36:54.686Z,25.58
2023-01-31T08:39:23.955Z,25.90
2023-01-31T08:41:53.610Z,26.32
2023-01-31T08:44:23.313Z,26.84
2023-01-31T08:46:52.813Z,27.11
2023-01-31T08:49:22.213Z,27.53
2023-01-31T08:51:51.074Z,28.04
2023-01-31T08:54:20.341Z,28.67
2023-01-31T08:56:50.395Z,29.18
2023-01-31T08:59:19.565Z,29.88
2023-01-31T09:01:49.055Z,30.44
2023-01-31T09:04:18.827Z,30.71
2023-01-31T09:06:47.618Z,30.98
2023-01-31T09:09:17.363Z,31.12
2023-01-31T09:11:46.648Z,31.39
2023-01-31T09:14:16.470Z,31.54
2023-01-31T09:16:47.528Z,31.67
2023-01-31T09:19:17.569Z,31.33
2023-01-31T09:21:47.524Z,30.90
2023-01-31T09:24:16.686Z,31.22
2023-01-31T09:26:45.668Z,30.83
2023-01-31T09:29:14.258Z,31.07
2023-01-31T09:31:43.647Z,30.64
2023-01-31T09:34:14.557Z,30.86
2023-01-31T09:36:43.410Z,31.18
2023-01-31T09:39:13.697Z,31.24
2023-01-31T09:41:54.581Z,31.64
2023-01-31T09:44:33.091Z,31.45
2023-01-31T09:47:18.042Z,31.67
2023-01-31T09:49:53.816Z,31.53
2023-01-31T09:52:24.080Z,31.96
2023-01-31T09:54:53.630Z,31.84
2023-01-31T09:57:31.843Z,31.96
2023-01-31T10:00:11.030Z,31.85
2023-01-31T10:02:46.214Z,31.67
2023-01-31T10:05:37.269Z,31.43
2023-01-31T10:08:47.285Z,31.20
2023-01-31T10:11:31.791Z,30.95
2023-01-31T10:14:29.370Z,31.24
2023-01-31T10:17:02.509Z,31.17
2023-01-31T10:19:55.107Z,31.69
2023-01-31T10:22:55.419Z,32.14
2023-01-31T10:25:53.462Z,32.31
2023-01-31T10:29:05.482Z,32.51
2023-01-31T10:31:44.599Z,32.48
2023-01-31T10:34:20.482Z,33.16
2023-01-31T10:37:12.947Z,33.13
2023-01-31T10:39:48.649Z,33.53
2023-01-31T10:42:36.541Z,34.24
2023-01-31T10:45:38.956Z,34.55
2023-01-31T10:48:22.668Z,34.77
2023-01-31T10:51:07.253Z,35.15
2023-01-31T10:53:44.064Z,35.39
2023-01-31T10:56:29.673Z,35.69
2023-01-31T10:59:00.430Z,35.75
2023-01-31T11:01:30.351Z,35.97
2023-01-31T11:04:02.058Z,36.26
2023-01-31T11:06:31.985Z,36.24
2023-01-31T11:09:04.011Z,36.64
2023-01-31T11:11:55.165Z,37.04
2023-01-31T11:14:24.225Z,37.08
2023-01-31T11:17:03.434Z,37.34
2023-01-31T11:19:41.561Z,36.89
2023-01-31T11:22:22.646Z,36.35
2023-01-31T11:24:53.513Z,36.55
2023-01-31T11:27:35.151Z,36.60
2023-01-31T11:30:07.008Z,36.60
2023-01-31T11:32:38.287Z,36.73
2023-01-31T11:35:16.493Z,37.04
2023-01-31T11:38:01.211Z,37.03
2023-01-31T11:40:35.115Z,37.20
2023-01-31T11:43:07.248Z,37.23
2023-01-31T11:45:43.904Z,37.13
2023-01-31T11:48:22.912Z,37.33
2023-01-31T11:50:56.532Z,37.37
2023-01-31T11:53:37.798Z,37.03
2023-01-31T11:56:39.416Z,36.88
2023-01-31T11:59:12.112Z,36.86
2023-01-31T12:01:49.002Z,36.86
2023-01-31T12:04:27.561Z,36.96
2023-01-31T12:07:02.335Z,37.19
2023-01-31T12:09:43.238Z,37.68
2023-01-31T12:12:47.360Z,37.74
2023-01-31T12:15:18.056Z,37.48
2023-01-31T12:17:50.523Z,37.30
2023-01-31T12:20:41.193Z,37.36
2023-01-31T12:23:18.824Z,37.12
2023-01-31T12:26:06.384Z,37.12
2023-01-31T12:28:44.188Z,36.92
2023-01-31T12:31:31.996Z,36.90
2023-01-31T12:34:19.525Z,36.92
2023-01-31T12:37:03.523Z,36.92
2023-01-31T12:39:32.564Z,37.03
2023-01-31T12:42:10.253Z,36.90
2023-01-31T12:45:03.133Z,37.50
2023-01-31T12:48:07.151Z,37.44
2023-01-31T12:51:02.562Z,36.85
2023-01-31T12:53:53.100Z,36.52
2023-01-31T12:56:28.900Z,36.44
2023-01-31T12:59:15.274Z,36.25
2023-01-31T13:01:49.138Z,36.25
2023-01-31T13:04:28.047Z,36.13
2023-01-31T13:07:01.645Z,35.82
2023-01-31T13:09:37.122Z,35.84
2023-01-31T13:12:26.117Z,35.98
2023-01-31T13:15:22.226Z,35.83
2023-01-31T13:17:59.427Z,35.88
2023-01-31T13:21:04.977Z,35.57
2023-01-31T13:23:55.723Z,35.47
2023-01-31T13:26:37.319Z,35.55
2023-01-31T13:29:14.752Z,35.35
2023-01-31T13:31:55.998Z,35.00
2023-01-31T13:34:51.839Z,34.81
2023-01-31T13:37:22.532Z,34.92
2023-01-31T13:40:03.847Z,34.99
2023-01-31T13:42:33.863Z,34.93
2023-01-31T13:45:08.055Z,35.04
2023-01-31T13:47:59.931Z,35.10
2023-01-31T13:50:38.396Z,34.83
2023-01-31T13:53:16.683Z,34.82
2023-01-31T13:55:48.798Z,34.84
2023-01-31T13:58:25.223Z,34.60
2023-01-31T14:01:22.316Z,34.12
2023-01-31T14:04:17.134Z,33.42
2023-01-31T14:07:14.304Z,33.38
2023-01-31T14:09:46.424Z,33.24
2023-01-31T14:12:19.231Z,33.39
2023-01-31T14:14:58.126Z,33.20
2023-01-31T14:17:30.738Z,33.17
2023-01-31T14:20:32.035Z,33.01
2023-01-31T14:23:31.466Z,32.80
2023-01-31T14:26:00.529Z,32.90
2023-01-31T14:28:31.291Z,32.96
2023-01-31T14:31:13.519Z,33.14
2023-01-31T14:33:49.484Z,32.96
2023-01-31T14:36:51.266Z,32.88
2023-01-31T14:39:41.576Z,32.53
2023-01-31T14:42:19.889Z,32.43
2023-01-31T14:45:16.975Z,32.42
2023-01-31T14:48:10.393Z,32.02
2023-01-31T14:51:03.651Z,31.74
2023-01-31T14:53:47.892Z,31.67
2023-01-31T14:56:55.144Z,31.74
2023-01-31T14:59:35.789Z,31.21
2023-01-31T15:02:31.750Z,31.09
2023-01-31T15:05:15.418Z,30.72
2023-01-31T15:08:05.980Z,30.12
2023-01-31T15:10:53.185Z,29.71
2023-01-31T15:13:42.782Z,29.60
2023-01-31T15:16:23.346Z,29.32
2023-01-31T15:19:09.865Z,29.02
2023-01-31T15:21:52.934Z,28.67
2023-01-31T15:24:34.853Z,28.25
2023-01-31T15:27:14.864Z,27.85
2023-01-31T15:29:59.052Z,27.49
2023-01-31T15:32:41.113Z,27.00
2023-01-31T15:35:31.227Z,26.57
2023-01-31T15:38:12.448Z,26.05
2023-01-31T15:40:41.107Z,25.75
2023-01-31T15:43:18.558Z,25.45
2023-01-31T15:45:51.903Z,25.12
2023-01-31T15:48:22.919Z,24.62
2023-01-31T15:50:57.425Z,23.89
2023-01-31T15:53:28.861Z,23.29
2023-01-31T15:56:05.732Z,22.72
2023-01-31T15:58:37.609Z,22.24
2023-01-31T16:01:07.124Z,21.91
2023-01-31T16:03:42.524Z,21.50
2023-01-31T16:06:25.961Z,20.78
2023-01-31T16:09:01.428Z,20.02
2023-01-31T16:11:34.534Z,19.34
2023-01-31T16:14:06.751Z,18.74
2023-01-31T16:16:37.703Z,18.10
2023-01-31T16:19:07.170Z,17.59
2023-01-31T16:21:44.062Z,17.16
2023-01-31T16:24:22.406Z,16.71
2023-01-31T16:27:16.051Z,16.35
2023-01-31T16:29:51.089Z,15.85
2023-01-31T16:32:26.543Z,15.48
2023-01-31T16:35:02.344Z,15.06
2023-01-31T16:37:40.014Z,14.73
2023-01-31T16:40:21.251Z,14.46
2023-01-31T16:42:50.288Z,14.15
2023-01-31T16:45:32.145Z,13.82
2023-01-31T16:48:26.263Z,13.53
2023-01-31T16:50:57.804Z,13.25
2023-01-31T16:53:34.659Z,13.06
2023-01-31T16:56:20.563Z,12.82
2023-01-31T16:58:57.937Z,12.55
2023-01-31T17:01:35.238Z,12.39
2023-01-31T17:04:06.880Z,12.22
2023-01-31T17:06:37.719Z,12.16
2023-01-31T17:09:17.409Z,12.03
2023-01-31T17:11:47.865Z,11.80
2023-01-31T17:14:16.812Z,11.55
2023-01-31T17:16:47.491Z,11.26
2023-01-31T17:19:17.422Z,11.06
2023-01-31T17:21:47.738Z,10.94
2023-01-31T17:24:25.149Z,10.86
2023-01-31T17:26:54.451Z,10.76
2023-01-31T17:29:26.434Z,10.69
2023-01-31T17:31:56.797Z,10.62
2023-01-31T17:34:25.882Z,10.53
2023-01-31T17:36:55.337Z,10.39
2023-01-31T17:39:24.973Z,10.19
2023-01-31T17:41:54.297Z,9.99
2023-01-31T17:44:24.509Z,9.81
2023-01-31T17:46:55.490Z,9.66
2023-01-31T17:49:24.781Z,9.58
2023-01-31T17:51:54.298Z,9.50
2023-01-31T17:54:24.431Z,9.37
2023-01-31T17:56:53.884Z,9.24
2023-01-31T17:59:27.178Z,9.15
2023-01-31T18:01:57.711Z,8.95
2023-01-31T18:04:27.701Z,8.80
2023-01-31T18:06:58.783Z,8.62
2023-01-31T18:09:28.479Z,8.50
2023-01-31T18:11:58.672Z,8.41
2023-01-31T18:14:28.451Z,8.33
2023-01-31T18:16:57.597Z,8.30
2023-01-31T18:19:29.170Z,8.21
2023-01-31T18:22:00.697Z,8.19
2023-01-31T18:24:31.801Z,8.20
2023-01-31T18:27:01.627Z,8.18
2023-01-31T18:29:31.547Z,8.15
2023-01-31T18:32:03.013Z,8.04
2023-01-31T18:34:33.803Z,7.93
2023-01-31T18:37:07.101Z,7.83
2023-01-31T18:39:37.288Z,7.81
2023-01-31T18:42:06.655Z,7.77
2023-01-31T18:44:37.353Z,7.76
2023-01-31T18:47:07.432Z,7.66
2023-01-31T18:49:36.703Z,7.57
2023-01-31T18:52:07.468Z,7.49
2023-01-31T18:54:38.354Z,7.50
2023-01-31T18:57:07.993Z,7.46
2023-01-31T18:59:37.553Z,7.40
2023-01-31T19:02:07.036Z,7.33
2023-01-31T19:04:37.253Z,7.28
2023-01-31T19:07:07.422Z,7.23
2023-01-31T19:09:37.757Z,7.18
2023-01-31T19:12:06.751Z,7.11
2023-01-31T19:14:35.667Z,7.04
2023-01-31T19:17:04.938Z,6.97
2023-01-31T19:19:35.819Z,6.90
2023-01-31T19:22:05.415Z,6.85
2023-01-31T19:24:35.430Z,6.79
2023-01-31T19:27:05.502Z,6.73
2023-01-31T19:29:35.693Z,6.63
2023-01-31T19:32:04.703Z,6.61
2023-01-31T19:34:34.104Z,6.53
2023-01-31T19:37:02.889Z,6.48
2023-01-31T19:39:31.729Z,6.40
2023-01-31T19:42:03.339Z,6.36
2023-01-31T19:44:35.741Z,6.37
2023-01-31T19:47:11.296Z,6.32
2023-01-31T19:49:43.383Z,6.18
2023-01-31T19:52:16.862Z,5.98
2023-01-31T19:54:52.091Z,5.92
2023-01-31T19:57:25.730Z,5.76
2023-01-31T20:00:02.646Z,5.62
2023-01-31T20:02:36.398Z,5.42
2023-01-31T20:05:07.254Z,5.20
2023-01-31T20:07:38.620Z,5.10
2023-01-31T20:10:14.256Z,4.99
2023-01-31T20:12:46.436Z,4.93
2023-01-31T20:15:17.198Z,4.96
2023-01-31T20:17:51.691Z,4.92
2023-01-31T20:20:26.714Z,4.92
2023-01-31T20:22:58.535Z,4.93
2023-01-31T20:25:31.828Z,4.90
2023-01-31T20:28:02.858Z,4.93
2023-01-31T20:30:36.710Z,4.93
2023-01-31T20:33:08.866Z,4.93
2023-01-31T20:35:42.150Z,5.01
2023-01-31T20:38:16.846Z,5.12
2023-01-31T20:40:51.793Z,5.04
2023-01-31T20:43:25.908Z,4.84
2023-01-31T20:46:10.704Z,4.58
2023-01-31T20:48:43.528Z,4.32
2023-01-31T20:51:16.686Z,4.22
2023-01-31T20:53:48.614Z,4.23
2023-01-31T20:56:19.011Z,4.29
2023-01-31T20:58:50.140Z,4.35
2023-01-31T21:01:23.791Z,4.38
2023-01-31T21:03:54.894Z,4.33
2023-01-31T21:06:31.110Z,4.27
2023-01-31T21:09:02.295Z,4.20
2023-01-31T21:11:36.401Z,4.16
2023-01-31T21:14:06.756Z,4.21
2023-01-31T21:16:38.586Z,4.30
2023-01-31T21:19:11.561Z,4.33
2023-01-31T21:21:42.460Z,4.27
2023-01-31T21:24:15.596Z,4.25
2023-01-31T21:26:46.902Z,4.21
2023-01-31T21:29:20.061Z,3.94
2023-01-31T21:31:50.112Z,3.78
2023-01-31T21:34:23.747Z,3.75
2023-01-31T21:36:55.519Z,3.65
2023-01-31T21:39:27.331Z,3.56
2023-01-31T21:42:19.627Z,3.54
2023-01-31T21:44:51.246Z,3.47
2023-01-31T21:47:21.813Z,3.46
2023-01-31T21:49:52.390Z,3.50
2023-01-31T21:52:23.684Z,3.59
2023-01-31T21:54:55.884Z,3.76
2023-01-31T21:57:26.829Z,3.69
2023-01-31T21:59:58.121Z,3.64
2023-01-31T22:02:33.080Z,3.59
2023-01-31T22:05:04.912Z,3.40
2023-01-31T22:07:35.150Z,3.33
2023-01-31T22:10:07.648Z,3.41
2023-01-31T22:12:40.074Z,3.48
2023-01-31T22:15:13.089Z,3.53
2023-01-31T22:17:44.552Z,3.61
2023-01-31T22:20:17.180Z,3.70
2023-01-31T22:22:50.024Z,3.78
2023-01-31T22:25:21.248Z,3.64
2023-01-31T22:27:56.066Z,3.45
2023-01-31T22:30:27.545Z,3.30
2023-01-31T22:32:58.470Z,3.28
2023-01-31T22:35:28.150Z,3.39
2023-01-31T22:37:58.115Z,3.47
2023-01-31T22:40:29.797Z,3.53
2023-01-31T22:43:01.175Z,3.53
2023-01-31T22:45:31.866Z,3.47
2023-01-31T22:48:02.889Z,3.41
2023-01-31T22:50:36.130Z,3.42
2023-01-31T22:53:05.587Z,3.45
2023-01-31T22:55:43.960Z,3.45
2023-01-31T22:58:13.891Z,3.39
2023-01-31T23:00:45.465Z,3.40
2023-01-31T23:03:17.512Z,3.39
2023-01-31T23:05:47.287Z,3.31
2023-01-31T23:08:20.191Z,3.20
2023-01-31T23:10:54.347Z,3.11
2023-01-31T23:13:27.328Z,3.02
2023-01-31T23:15:57.551Z,2.96
2023-01-31T23:18:32.570Z,2.87
2023-01-31T23:21:28.052Z,2.82
2023-01-31T23:23:59.913Z,2.83
2023-01-31T23:26:30.985Z,2.95
2023-01-31T23:29:03.335Z,3.03
2023-01-31T23:31:33.315Z,3.08
2023-01-31T23:34:08.077Z,3.11
2023-01-31T23:36:40.300Z,3.10
2023-01-31T23:39:12.813Z,3.11
2023-01-31T23:41:43.528Z,3.10
2023-01-31T23:44:13.368Z,2.89
2023-01-31T23:46:43.422Z,2.76
2023-01-31T23:49:13.404Z,2.66
2023-01-31T23:51:46.639Z,2.53
2023-01-31T23:54:15.613Z,2.41
2023-01-31T23:56:44.420Z,2.41
2023-01-31T23:59:13.548Z,2.46
